Aviation Digital Data Service (ADDS)

Output produced by METARs form (0337 UTC 24 February 2017)
found at http://www.aviationweather.gov/adds/metars/
 
UGKO 240330Z 10005KT 9999 SCT049 07/01 Q1019 R07/09//70 NOSIG
TAF UGKO 232300Z 2400/2424 09006KT 9999 SCT040 TX16/2412Z TN05/2400Z 
     TEMPO 2400/2408 08016KT
       
UGSB 240330Z 14019KT 9999 SCT110 09/M00 Q1020 R13/CLRD70 NOSIG
TAF UGSB 232300Z 2400/2424 13020KT 9999 NSC TX15/2409Z TN06/2402Z 
     BECMG 2409/2410 01008KT 
     BECMG 2415/2416 13015KT
       
UGTB 240330Z 27006KT 240V300 CAVOK 04/M02 Q1020 R31L/CLRD70 NOSIG
TAF UGTB 232300Z 2400/2424 31016KT 9999 SCT070 TX14/2412Z TN02/2403Z 
     TEMPO 2400/2405 26006KT 
     TEMPO 2409/2415 32026KT 
     TEMPO 2418/2424 33006KT